Time;durP1;ratioP1;P1;durP2;ratioP2;P2;SDS_P1;SDS_P2;PMS_P1;PMS_P2;Temp;Humidity;BMP_temperature;BMP_pressure;BME280_temperature;BME280_humidity;BME280_pressure;Samples;Min_cycle;Max_cycle;Signal;HPM_P1;HPM_P2
2022/04/21 00:00:55;;;;;;;0.70;0.70;;;;;;;;;;1800547;79;26275;-50
2022/04/21 00:03:22;;;;;;;0.70;0.70;;;;;;;;;;1796995;79;26295;-45
2022/04/21 00:05:49;;;;;;;1.40;0.80;;;;;;;;;;1811378;79;26325;-44
2022/04/21 00:08:20;;;;;;;0.65;0.65;;;;;;;;;;1801255;79;26341;-47
2022/04/21 00:10:46;;;;;;;0.80;0.80;;;;;;;;;;1811531;78;26346;-44
2022/04/21 00:13:14;;;;;;;0.90;0.70;;;;;;;;;;1811934;78;26290;-47
2022/04/21 00:15:41;;;;;;;0.70;0.70;;;;;;;;;;1800226;79;26298;-45
2022/04/21 00:18:08;;;;;;;0.70;0.70;;;;;;;;;;1806950;79;26323;-51
2022/04/21 00:20:35;;;;;;;0.70;0.70;;;;;;;;;;1802617;79;26321;-51
2022/04/21 00:25:48;;;;;;;0.80;0.80;;;;;;;;;;1807138;79;26308;-51
2022/04/21 00:28:16;;;;;;;0.60;0.60;;;;;;;;;;1801932;79;25845;-50
2022/04/21 00:30:43;;;;;;;0.70;0.70;;;;;;;;;;1799135;79;26729;-44
2022/04/21 00:33:10;;;;;;;1.37;0.68;;;;;;;;;;1804545;78;26768;-45
2022/04/21 00:35:38;;;;;;;0.80;0.80;;;;;;;;;;1808733;79;26845;-47
2022/04/21 00:38:05;;;;;;;0.60;0.60;;;;;;;;;;1804020;79;26264;-46
2022/04/21 00:40:32;;;;;;;0.62;0.62;;;;;;;;;;1791820;78;26290;-48
2022/04/21 00:43:00;;;;;;;0.80;0.80;;;;;;;;;;1805790;78;26353;-47
2022/04/21 00:45:29;;;;;;;0.70;0.70;;;;;;;;;;1810093;78;26290;-45
2022/04/21 00:47:58;;;;;;;0.70;0.70;;;;;;;;;;1805451;78;26244;-49
2022/04/21 00:50:27;;;;;;;0.60;0.60;;;;;;;;;;1819020;78;26316;-47
2022/04/21 00:52:55;;;;;;;0.70;0.70;;;;;;;;;;1814109;78;26321;-44
2022/04/21 00:55:23;;;;;;;0.60;0.60;;;;;;;;;;1799465;78;26281;-49
2022/04/21 00:57:52;;;;;;;0.60;0.60;;;;;;;;;;1810505;78;26319;-47
2022/04/21 01:00:20;;;;;;;0.70;0.70;;;;;;;;;;1797803;78;26912;-48
2022/04/21 01:02:49;;;;;;;0.70;0.70;;;;;;;;;;1801285;79;26357;-47
2022/04/21 01:05:18;;;;;;;0.50;0.50;;;;;;;;;;1802959;78;26376;-48
2022/04/21 01:07:47;;;;;;;0.90;0.90;;;;;;;;;;1800356;79;26341;-45
2022/04/21 01:10:15;;;;;;;0.60;0.60;;;;;;;;;;1808084;78;26384;-47
2022/04/21 01:12:43;;;;;;;0.60;0.60;;;;;;;;;;1818607;78;26278;-46
2022/04/21 01:15:11;;;;;;;0.70;0.70;;;;;;;;;;1794273;78;26282;-50
2022/04/21 01:17:39;;;;;;;0.50;0.50;;;;;;;;;;1807657;78;26299;-51
2022/04/21 01:20:12;;;;;;;0.60;0.60;;;;;;;;;;1808801;78;26384;-47
2022/04/21 01:22:37;;;;;;;0.60;0.60;;;;;;;;;;1806594;78;26363;-50
2022/04/21 01:25:05;;;;;;;0.65;0.65;;;;;;;;;;1797608;79;27373;-47
2022/04/21 01:27:34;;;;;;;0.60;0.60;;;;;;;;;;1807516;78;26259;-44
2022/04/21 01:30:03;;;;;;;0.60;0.60;;;;;;;;;;1807982;78;26360;-45
2022/04/21 01:32:35;;;;;;;0.70;0.70;;;;;;;;;;1791598;78;26349;-47
2022/04/21 01:34:59;;;;;;;0.57;0.57;;;;;;;;;;1817464;78;26354;-50
2022/04/21 01:42:43;;;;;;;0.70;0.70;;;;;;;;;;1807758;79;26256;-45
2022/04/21 01:45:10;;;;;;;0.60;0.60;;;;;;;;;;1807576;78;26333;-50
2022/04/21 01:47:38;;;;;;;0.70;0.70;;;;;;;;;;1819334;78;26264;-46
2022/04/21 01:50:07;;;;;;;0.70;0.70;;;;;;;;;;1808158;78;26372;-46
2022/04/21 01:52:36;;;;;;;0.62;0.62;;;;;;;;;;1801524;78;26326;-53
2022/04/21 01:55:05;;;;;;;0.80;0.80;;;;;;;;;;1807261;78;26267;-45
2022/04/21 01:57:32;;;;;;;0.70;0.70;;;;;;;;;;1802688;78;26400;-45
2022/04/21 01:59:59;;;;;;;0.85;0.85;;;;;;;;;;1807169;78;26283;-51
2022/04/21 02:02:26;;;;;;;0.68;0.68;;;;;;;;;;1809468;78;26289;-45
2022/04/21 02:04:54;;;;;;;0.62;0.62;;;;;;;;;;1796216;78;26389;-45
2022/04/21 02:07:21;;;;;;;0.60;0.60;;;;;;;;;;1810591;78;26357;-52
2022/04/21 02:09:48;;;;;;;0.60;0.60;;;;;;;;;;1801652;78;26385;-44
2022/04/21 02:12:16;;;;;;;0.60;0.60;;;;;;;;;;1804686;78;26296;-45
2022/04/21 02:14:44;;;;;;;0.70;0.70;;;;;;;;;;1798812;78;26889;-48
2022/04/21 02:17:11;;;;;;;1.17;0.65;;;;;;;;;;1791615;78;26291;-44
2022/04/21 02:19:38;;;;;;;0.60;0.60;;;;;;;;;;1803800;78;26337;-48
2022/04/21 02:22:06;;;;;;;0.57;0.57;;;;;;;;;;1788815;78;26275;-48
2022/04/21 02:24:33;;;;;;;0.60;0.60;;;;;;;;;;1800606;78;26298;-47
2022/04/21 02:27:01;;;;;;;0.80;0.80;;;;;;;;;;1803006;78;26291;-49
2022/04/21 02:29:28;;;;;;;0.60;0.60;;;;;;;;;;1806011;78;26306;-47
2022/04/21 02:31:55;;;;;;;0.60;0.60;;;;;;;;;;1802935;78;26235;-48
2022/04/21 02:34:23;;;;;;;0.50;0.50;;;;;;;;;;1802975;79;26282;-50
2022/04/21 02:36:50;;;;;;;0.62;0.62;;;;;;;;;;1803510;78;26310;-52
2022/04/21 02:39:17;;;;;;;0.50;0.50;;;;;;;;;;1797506;78;26290;-48
2022/04/21 02:41:44;;;;;;;0.60;0.60;;;;;;;;;;1802508;78;26374;-49
2022/04/21 02:44:12;;;;;;;0.90;0.80;;;;;;;;;;1788366;78;26229;-44
2022/04/21 02:46:39;;;;;;;0.60;0.60;;;;;;;;;;1802894;78;26254;-45
2022/04/21 02:49:07;;;;;;;0.60;0.60;;;;;;;;;;1799170;79;26719;-45
2022/04/21 02:51:34;;;;;;;0.50;0.50;;;;;;;;;;1801741;78;26369;-50
2022/04/21 02:59:33;;;;;;;0.80;0.80;;;;;;;;;;1801478;79;26409;-47
2022/04/21 03:02:01;;;;;;;0.60;0.60;;;;;;;;;;1797330;79;26691;-47
2022/04/21 03:04:28;;;;;;;0.50;0.50;;;;;;;;;;1795104;78;27105;-44
2022/04/21 03:06:56;;;;;;;0.75;0.75;;;;;;;;;;1803437;79;26281;-46
2022/04/21 03:09:23;;;;;;;0.60;0.60;;;;;;;;;;1801376;78;26424;-49
2022/04/21 03:11:50;;;;;;;0.68;0.68;;;;;;;;;;1803187;78;26309;-50
2022/04/21 03:14:19;;;;;;;0.62;0.62;;;;;;;;;;1800724;78;26277;-50
2022/04/21 03:16:46;;;;;;;0.70;0.70;;;;;;;;;;1787665;78;26748;-45
2022/04/21 03:19:14;;;;;;;0.68;0.68;;;;;;;;;;1803036;79;26271;-48
2022/04/21 03:24:26;;;;;;;1.32;0.85;;;;;;;;;;1787111;79;26331;-49
2022/04/21 03:26:54;;;;;;;0.70;0.70;;;;;;;;;;1796318;78;26298;-50
2022/04/21 03:29:21;;;;;;;0.55;0.55;;;;;;;;;;1802621;79;26372;-48
2022/04/21 03:31:52;;;;;;;0.60;0.60;;;;;;;;;;1800989;79;26295;-47
2022/04/21 03:34:20;;;;;;;0.60;0.60;;;;;;;;;;1792623;78;26302;-44
2022/04/21 03:36:48;;;;;;;0.70;0.70;;;;;;;;;;1797929;78;26386;-49
2022/04/21 03:39:16;;;;;;;0.60;0.60;;;;;;;;;;1792698;78;26354;-45
2022/04/21 03:41:44;;;;;;;0.70;0.70;;;;;;;;;;1810691;78;26280;-45
2022/04/21 03:44:11;;;;;;;0.65;0.65;;;;;;;;;;1799711;78;26287;-47
2022/04/21 03:46:39;;;;;;;0.60;0.60;;;;;;;;;;1801165;78;26270;-46
2022/04/21 03:49:06;;;;;;;1.02;0.60;;;;;;;;;;1814105;78;26747;-49
2022/04/21 03:51:34;;;;;;;0.68;0.68;;;;;;;;;;1812862;78;26237;-49
2022/04/21 03:54:02;;;;;;;0.62;0.62;;;;;;;;;;1802400;79;26302;-48
2022/04/21 03:56:29;;;;;;;0.60;0.60;;;;;;;;;;1785575;78;26283;-50
2022/04/21 03:58:57;;;;;;;0.65;0.65;;;;;;;;;;1796924;78;26967;-45
2022/04/21 04:01:24;;;;;;;0.70;0.70;;;;;;;;;;1783006;80;26357;-47
2022/04/21 04:03:52;;;;;;;0.70;0.70;;;;;;;;;;1782441;80;26267;-49
2022/04/21 04:11:52;;;;;;;0.60;0.60;;;;;;;;;;1778814;79;26426;-44
2022/04/21 04:14:21;;;;;;;0.55;0.55;;;;;;;;;;1781790;80;26311;-49
2022/04/21 04:16:48;;;;;;;0.80;0.80;;;;;;;;;;1780105;80;25714;-51
2022/04/21 04:19:16;;;;;;;0.75;0.75;;;;;;;;;;1784342;80;26552;-46
2022/04/21 04:21:43;;;;;;;0.70;0.70;;;;;;;;;;1799001;79;26262;-46
2022/04/21 04:24:10;;;;;;;0.78;0.78;;;;;;;;;;1786632;79;26275;-47
2022/04/21 04:26:37;;;;;;;0.60;0.60;;;;;;;;;;1772450;80;26363;-48
2022/04/21 04:29:05;;;;;;;0.70;0.70;;;;;;;;;;1781182;80;26281;-45
2022/04/21 04:31:33;;;;;;;0.70;0.70;;;;;;;;;;1769196;79;26771;-47
2022/04/21 04:34:01;;;;;;;0.65;0.65;;;;;;;;;;1772197;79;26279;-45
2022/04/21 04:36:28;;;;;;;0.70;0.70;;;;;;;;;;1780434;79;26300;-47
2022/04/21 04:38:55;;;;;;;0.60;0.60;;;;;;;;;;1782801;79;26298;-47
2022/04/21 04:44:09;;;;;;;0.60;0.60;;;;;;;;;;1784238;79;26307;-47
2022/04/21 04:46:37;;;;;;;0.60;0.60;;;;;;;;;;1783705;79;26298;-46
2022/04/21 04:49:09;;;;;;;3.08;0.88;;;;;;;;;;1782118;79;26992;-46
2022/04/21 04:51:41;;;;;;;0.70;0.70;;;;;;;;;;1776019;80;26396;-49
2022/04/21 04:54:06;;;;;;;0.85;0.80;;;;;;;;;;1782267;79;27031;-47
2022/04/21 04:56:34;;;;;;;1.25;0.78;;;;;;;;;;1780892;79;26271;-47
2022/04/21 04:59:01;;;;;;;0.80;0.80;;;;;;;;;;1784587;79;26946;-43
2022/04/21 05:01:30;;;;;;;0.80;0.80;;;;;;;;;;1813140;78;26382;-48
2022/04/21 05:04:04;;;;;;;0.60;0.60;;;;;;;;;;1806622;78;26303;-46
2022/04/21 05:06:42;;;;;;;0.68;0.68;;;;;;;;;;1806105;78;26342;-44
2022/04/21 05:09:11;;;;;;;0.80;0.80;;;;;;;;;;1809912;78;26353;-49
2022/04/21 05:11:39;;;;;;;0.60;0.60;;;;;;;;;;1807266;78;26932;-46
2022/04/21 05:14:10;;;;;;;0.70;0.70;;;;;;;;;;1809632;79;26298;-49
2022/04/21 05:16:40;;;;;;;4.40;0.70;;;;;;;;;;1807707;79;26288;-49
2022/04/21 05:19:05;;;;;;;0.80;0.70;;;;;;;;;;1807935;78;27010;-52
2022/04/21 05:21:34;;;;;;;5.12;0.90;;;;;;;;;;1810269;79;26377;-47
2022/04/21 05:24:02;;;;;;;3.70;0.70;;;;;;;;;;1811496;79;26359;-45
2022/04/21 05:26:30;;;;;;;1.30;0.75;;;;;;;;;;1809216;78;26285;-46
2022/04/21 05:28:58;;;;;;;1.72;0.70;;;;;;;;;;1810241;78;26282;-52
2022/04/21 05:31:26;;;;;;;0.60;0.60;;;;;;;;;;1808480;78;26318;-48
2022/04/21 05:33:54;;;;;;;1.60;0.70;;;;;;;;;;1805826;78;26959;-45
2022/04/21 05:36:22;;;;;;;2.83;0.80;;;;;;;;;;1809028;79;26295;-45
2022/04/21 05:38:50;;;;;;;0.60;0.60;;;;;;;;;;1807487;79;26306;-46
2022/04/21 05:41:19;;;;;;;0.85;0.78;;;;;;;;;;1811472;78;27602;-53
2022/04/21 05:43:50;;;;;;;4.55;0.90;;;;;;;;;;1811435;78;26782;-51
2022/04/21 05:46:17;;;;;;;12.45;1.15;;;;;;;;;;1807936;78;26271;-48
2022/04/21 05:48:45;;;;;;;7.53;0.90;;;;;;;;;;1805423;78;26363;-46
2022/04/21 05:51:13;;;;;;;1.17;0.80;;;;;;;;;;1811781;78;26561;-50
2022/04/21 05:53:41;;;;;;;5.25;0.70;;;;;;;;;;1811152;78;26291;-48
2022/04/21 05:56:09;;;;;;;2.58;1.00;;;;;;;;;;1811827;78;26342;-45
2022/04/21 05:58:37;;;;;;;3.02;0.90;;;;;;;;;;1805799;78;26675;-48
2022/04/21 06:01:08;;;;;;;1.60;0.90;;;;;;;;;;1804990;78;26853;-48
2022/04/21 06:03:35;;;;;;;2.45;1.07;;;;;;;;;;1797978;78;26275;-46
2022/04/21 06:06:03;;;;;;;6.62;0.95;;;;;;;;;;1792687;79;26278;-49
2022/04/21 06:08:30;;;;;;;3.80;0.90;;;;;;;;;;1793801;79;27332;-45
2022/04/21 06:10:58;;;;;;;1.55;0.75;;;;;;;;;;1804740;78;26393;-48
2022/04/21 06:13:26;;;;;;;1.20;0.70;;;;;;;;;;1807407;78;26298;-52
2022/04/21 06:15:54;;;;;;;2.35;0.68;;;;;;;;;;1813158;78;26216;-50
2022/04/21 06:18:23;;;;;;;1.40;0.80;;;;;;;;;;1807178;78;26287;-52
2022/04/21 06:20:50;;;;;;;0.70;0.70;;;;;;;;;;1801571;78;26300;-49
2022/04/21 06:23:18;;;;;;;0.70;0.70;;;;;;;;;;1801015;78;26306;-50
2022/04/21 06:25:45;;;;;;;1.30;0.93;;;;;;;;;;1805335;78;26345;-47
2022/04/21 06:28:13;;;;;;;3.30;0.80;;;;;;;;;;1805293;78;26290;-51
2022/04/21 06:30:41;;;;;;;0.70;0.70;;;;;;;;;;1813374;78;26567;-48
2022/04/21 06:33:08;;;;;;;4.85;0.72;;;;;;;;;;1802549;78;26352;-53
2022/04/21 06:35:35;;;;;;;2.22;0.70;;;;;;;;;;1805090;78;26312;-55
2022/04/21 06:38:03;;;;;;;0.85;0.70;;;;;;;;;;1804493;78;27920;-51
2022/04/21 06:40:30;;;;;;;2.22;0.80;;;;;;;;;;1807658;78;27211;-48
2022/04/21 06:43:02;;;;;;;0.85;0.85;;;;;;;;;;1805579;78;26275;-55
2022/04/21 06:48:13;;;;;;;0.60;0.60;;;;;;;;;;1807689;78;26484;-45
2022/04/21 06:50:41;;;;;;;0.70;0.70;;;;;;;;;;1806321;78;26922;-49
2022/04/21 06:53:09;;;;;;;1.90;0.70;;;;;;;;;;1804961;78;26362;-46
2022/04/21 06:55:36;;;;;;;0.80;0.80;;;;;;;;;;1806814;78;26267;-48
2022/04/21 06:58:03;;;;;;;0.70;0.70;;;;;;;;;;1806409;78;26216;-45
2022/04/21 07:00:31;;;;;;;0.60;0.60;;;;;;;;;;1807755;78;26263;-50
2022/04/21 07:02:58;;;;;;;0.72;0.70;;;;;;;;;;1791050;79;26243;-47
2022/04/21 07:05:27;;;;;;;0.70;0.70;;;;;;;;;;1792765;79;26704;-46
2022/04/21 07:07:54;;;;;;;1.37;0.70;;;;;;;;;;1797132;78;26900;-44
2022/04/21 07:10:22;;;;;;;0.85;0.70;;;;;;;;;;1801615;78;26391;-43
2022/04/21 07:12:50;;;;;;;0.60;0.60;;;;;;;;;;1802073;78;26621;-48
2022/04/21 07:15:17;;;;;;;0.53;0.53;;;;;;;;;;1775333;79;26290;-52
2022/04/21 07:17:45;;;;;;;0.60;0.60;;;;;;;;;;1843142;76;26741;-55
2022/04/21 07:20:13;;;;;;;0.98;0.65;;;;;;;;;;1842600;77;26276;-49
2022/04/21 07:22:40;;;;;;;1.40;0.60;;;;;;;;;;1851619;76;26257;-54
2022/04/21 07:25:09;;;;;;;0.70;0.70;;;;;;;;;;1842022;76;26666;-55
2022/04/21 07:27:37;;;;;;;0.70;0.70;;;;;;;;;;1839599;76;26192;-49
2022/04/21 07:30:06;;;;;;;0.75;0.70;;;;;;;;;;1839178;76;26260;-46
2022/04/21 07:32:33;;;;;;;1.67;0.60;;;;;;;;;;1845959;76;26258;-43
2022/04/21 07:35:01;;;;;;;2.33;1.20;;;;;;;;;;1855124;76;26327;-46
2022/04/21 07:37:30;;;;;;;0.62;0.62;;;;;;;;;;1834479;76;26265;-45
2022/04/21 07:39:57;;;;;;;0.55;0.55;;;;;;;;;;1838697;77;26787;-47
2022/04/21 07:42:24;;;;;;;0.70;0.70;;;;;;;;;;1848211;76;26249;-46
2022/04/21 07:44:52;;;;;;;0.70;0.70;;;;;;;;;;1835279;76;26289;-41
2022/04/21 07:47:19;;;;;;;0.50;0.50;;;;;;;;;;1847745;76;26381;-44
2022/04/21 07:49:47;;;;;;;3.90;0.75;;;;;;;;;;1848993;76;26866;-47
2022/04/21 07:55:19;;;;;;;0.53;0.53;;;;;;;;;;1845390;76;26269;-48
2022/04/21 07:57:48;;;;;;;1.42;0.62;;;;;;;;;;1846505;76;26311;-45
2022/04/21 08:00:16;;;;;;;1.62;0.60;;;;;;;;;;1846736;76;26370;-43
2022/04/21 08:02:45;;;;;;;0.60;0.60;;;;;;;;;;1840835;76;26273;-43
2022/04/21 08:05:13;;;;;;;2.58;0.60;;;;;;;;;;1846828;76;26264;-41
2022/04/21 08:07:41;;;;;;;0.70;0.70;;;;;;;;;;1848451;76;27675;-46
2022/04/21 08:10:09;;;;;;;0.70;0.70;;;;;;;;;;1842318;76;26796;-44
2022/04/21 08:12:49;;;;;;;0.60;0.60;;;;;;;;;;1848500;76;26735;-43
2022/04/21 08:15:24;;;;;;;0.50;0.50;;;;;;;;;;1848638;76;26729;-44
2022/04/21 08:17:52;;;;;;;0.50;0.50;;;;;;;;;;1848663;76;26359;-46
2022/04/21 08:20:19;;;;;;;0.60;0.60;;;;;;;;;;1848031;76;26278;-50
2022/04/21 08:22:46;;;;;;;0.80;0.57;;;;;;;;;;1848328;76;26771;-46
2022/04/21 08:33:32;;;;;;;0.40;0.40;;;;;;;;;;1843216;76;26370;-50
2022/04/21 08:35:59;;;;;;;0.40;0.40;;;;;;;;;;1838580;76;26283;-47
2022/04/21 08:38:28;;;;;;;0.55;0.55;;;;;;;;;;1841917;76;26757;-48
2022/04/21 08:40:56;;;;;;;0.90;0.40;;;;;;;;;;1854496;76;26848;-49
2022/04/21 08:43:25;;;;;;;0.75;0.50;;;;;;;;;;1865804;76;26264;-49
2022/04/21 08:45:53;;;;;;;0.47;0.47;;;;;;;;;;1848338;76;26277;-50
2022/04/21 08:48:22;;;;;;;0.60;0.60;;;;;;;;;;1854432;76;26266;-49
2022/04/21 08:50:50;;;;;;;0.95;0.60;;;;;;;;;;1861062;76;26297;-46
2022/04/21 08:53:19;;;;;;;0.60;0.60;;;;;;;;;;1851817;76;26935;-47
2022/04/21 08:55:48;;;;;;;0.60;0.60;;;;;;;;;;1854698;76;26533;-45
2022/04/21 08:58:15;;;;;;;0.50;0.50;;;;;;;;;;1842197;76;26891;-47
2022/04/21 09:00:43;;;;;;;1.10;0.65;;;;;;;;;;1843894;76;26801;-46
2022/04/21 09:03:13;;;;;;;3.37;0.50;;;;;;;;;;1845111;75;26838;-44
2022/04/21 09:05:40;;;;;;;0.55;0.55;;;;;;;;;;1848246;76;26746;-51
2022/04/21 09:08:09;;;;;;;0.50;0.50;;;;;;;;;;1846387;76;26237;-45
2022/04/21 09:10:36;;;;;;;0.57;0.57;;;;;;;;;;1842680;76;26290;-54
2022/04/21 09:13:03;;;;;;;0.60;0.60;;;;;;;;;;1847958;76;26823;-45
2022/04/21 09:15:32;;;;;;;2.05;0.60;;;;;;;;;;1841850;76;26330;-42
2022/04/21 09:18:01;;;;;;;0.60;0.60;;;;;;;;;;1853476;76;26249;-45
2022/04/21 09:20:36;;;;;;;0.60;0.60;;;;;;;;;;1848442;76;26729;-47
2022/04/21 09:23:01;;;;;;;0.70;0.70;;;;;;;;;;1845549;76;26269;-42
2022/04/21 09:25:30;;;;;;;0.50;0.50;;;;;;;;;;1852827;76;26316;-46
2022/04/21 09:27:58;;;;;;;2.15;0.60;;;;;;;;;;1844475;76;26257;-46
2022/04/21 09:30:25;;;;;;;0.60;0.60;;;;;;;;;;1848150;76;26719;-43
2022/04/21 09:32:54;;;;;;;1.77;0.65;;;;;;;;;;1848213;76;26269;-50
2022/04/21 09:35:22;;;;;;;0.68;0.68;;;;;;;;;;1840577;76;26367;-42
2022/04/21 09:37:51;;;;;;;0.82;0.70;;;;;;;;;;1843159;76;26369;-47
2022/04/21 09:40:23;;;;;;;0.85;0.60;;;;;;;;;;1855306;76;26293;-42
2022/04/21 09:42:54;;;;;;;0.70;0.70;;;;;;;;;;1855223;76;26261;-41
2022/04/21 09:48:19;;;;;;;0.70;0.70;;;;;;;;;;1846145;76;26277;-44
2022/04/21 09:50:51;;;;;;;0.62;0.62;;;;;;;;;;1838597;76;26335;-52
2022/04/21 09:53:17;;;;;;;0.50;0.50;;;;;;;;;;1843084;76;26317;-43
2022/04/21 09:55:44;;;;;;;0.60;0.60;;;;;;;;;;1842291;76;26324;-47
2022/04/21 09:58:13;;;;;;;0.55;0.55;;;;;;;;;;1845095;76;26230;-44
2022/04/21 10:00:42;;;;;;;0.60;0.60;;;;;;;;;;1846075;76;26313;-46
2022/04/21 10:03:10;;;;;;;0.70;0.70;;;;;;;;;;1848188;76;26757;-45
2022/04/21 10:05:40;;;;;;;1.67;0.70;;;;;;;;;;1853650;76;26215;-46
2022/04/21 10:08:08;;;;;;;0.57;0.57;;;;;;;;;;1867370;76;26660;-42
2022/04/21 10:10:36;;;;;;;0.70;0.70;;;;;;;;;;1861714;76;26363;-41
2022/04/21 10:13:04;;;;;;;0.60;0.60;;;;;;;;;;1865270;76;26360;-43
2022/04/21 10:15:32;;;;;;;0.60;0.60;;;;;;;;;;1867373;76;26208;-45
2022/04/21 10:17:59;;;;;;;0.80;0.80;;;;;;;;;;1868096;76;26277;-44
2022/04/21 10:20:27;;;;;;;0.57;0.57;;;;;;;;;;1876182;76;26259;-43
2022/04/21 10:22:57;;;;;;;0.95;0.70;;;;;;;;;;1856470;76;26304;-42
2022/04/21 10:25:37;;;;;;;0.72;0.72;;;;;;;;;;1852317;76;26789;-49
2022/04/21 10:28:23;;;;;;;0.60;0.60;;;;;;;;;;1838142;76;26850;-46
2022/04/21 10:30:50;;;;;;;0.60;0.60;;;;;;;;;;1858647;76;26613;-49
2022/04/21 10:33:18;;;;;;;0.70;0.70;;;;;;;;;;1854283;76;26331;-50
2022/04/21 10:35:48;;;;;;;0.80;0.80;;;;;;;;;;1858224;76;26883;-47
2022/04/21 10:38:17;;;;;;;0.55;0.55;;;;;;;;;;1851882;76;26249;-47
2022/04/21 10:40:57;;;;;;;0.80;0.80;;;;;;;;;;1854037;76;26315;-47
2022/04/21 10:43:25;;;;;;;0.70;0.70;;;;;;;;;;1853708;76;26206;-48
2022/04/21 10:46:05;;;;;;;1.27;0.70;;;;;;;;;;1855772;76;26425;-48
2022/04/21 10:48:43;;;;;;;1.02;0.70;;;;;;;;;;1842374;77;26359;-49
2022/04/21 10:51:11;;;;;;;1.25;0.80;;;;;;;;;;1875517;76;26327;-50
2022/04/21 10:59:32;;;;;;;0.85;0.70;;;;;;;;;;1851252;76;26219;-49
2022/04/21 11:02:12;;;;;;;1.27;0.85;;;;;;;;;;1847729;76;26272;-50
2022/04/21 11:04:39;;;;;;;1.95;0.80;;;;;;;;;;1864871;75;26292;-48
2022/04/21 11:07:11;;;;;;;0.80;0.80;;;;;;;;;;1860548;75;26803;-48
2022/04/21 11:09:43;;;;;;;0.80;0.80;;;;;;;;;;1862383;75;26330;-51
2022/04/21 11:12:12;;;;;;;1.10;0.82;;;;;;;;;;1862885;76;26354;-53
2022/04/21 11:14:41;;;;;;;0.70;0.70;;;;;;;;;;1862685;75;26749;-51
2022/04/21 11:17:08;;;;;;;1.12;0.88;;;;;;;;;;1869988;75;26253;-54
2022/04/21 11:19:37;;;;;;;1.05;0.75;;;;;;;;;;1856285;76;26570;-51
2022/04/21 11:22:05;;;;;;;0.78;0.78;;;;;;;;;;1861987;76;26262;-50
2022/04/21 11:24:51;;;;;;;2.02;0.80;;;;;;;;;;1859064;76;26236;-49
2022/04/21 11:27:19;;;;;;;0.78;0.78;;;;;;;;;;1855935;75;26261;-47
2022/04/21 11:29:47;;;;;;;0.75;0.75;;;;;;;;;;1854652;76;27382;-53
2022/04/21 11:32:18;;;;;;;0.80;0.80;;;;;;;;;;1865148;75;26233;-45
2022/04/21 11:35:05;;;;;;;1.77;0.80;;;;;;;;;;1860968;76;27029;-49
2022/04/21 11:37:45;;;;;;;0.70;0.70;;;;;;;;;;1860232;76;26253;-50
2022/04/21 11:40:22;;;;;;;0.70;0.70;;;;;;;;;;1857030;76;26786;-46
2022/04/21 11:42:50;;;;;;;3.12;0.75;;;;;;;;;;1856022;75;27696;-45
2022/04/21 11:45:18;;;;;;;1.80;0.80;;;;;;;;;;1848563;75;26248;-45
2022/04/21 11:47:46;;;;;;;1.10;0.75;;;;;;;;;;1861901;76;26245;-47
2022/04/21 11:50:15;;;;;;;0.88;0.88;;;;;;;;;;1865559;75;26241;-47
2022/04/21 11:52:46;;;;;;;1.90;0.78;;;;;;;;;;1854390;76;26787;-46
2022/04/21 11:55:12;;;;;;;2.08;0.90;;;;;;;;;;1850678;76;26367;-46
2022/04/21 11:57:41;;;;;;;0.80;0.80;;;;;;;;;;1860365;76;26249;-54
2022/04/21 12:00:09;;;;;;;0.95;0.70;;;;;;;;;;1857245;77;26292;-50
2022/04/21 12:08:08;;;;;;;1.80;0.90;;;;;;;;;;1862152;77;26391;-47
2022/04/21 12:10:35;;;;;;;0.70;0.70;;;;;;;;;;1853870;76;26728;-44
2022/04/21 12:13:03;;;;;;;0.70;0.70;;;;;;;;;;1874708;75;26578;-46
2022/04/21 12:15:31;;;;;;;0.78;0.78;;;;;;;;;;1858651;77;26359;-51
2022/04/21 12:17:59;;;;;;;0.70;0.70;;;;;;;;;;1862241;76;26252;-48
2022/04/21 12:20:27;;;;;;;0.88;0.82;;;;;;;;;;1863221;75;26358;-53
2022/04/21 12:22:56;;;;;;;0.80;0.80;;;;;;;;;;1862203;75;26615;-47
2022/04/21 12:25:30;;;;;;;0.75;0.70;;;;;;;;;;1872564;75;26251;-46
2022/04/21 12:28:05;;;;;;;0.80;0.80;;;;;;;;;;1870462;75;26272;-47
2022/04/21 12:30:32;;;;;;;0.70;0.70;;;;;;;;;;1853445;77;26332;-45
2022/04/21 12:33:00;;;;;;;0.60;0.60;;;;;;;;;;1856266;77;26322;-49
2022/04/21 12:35:37;;;;;;;1.70;0.70;;;;;;;;;;1875387;75;26281;-46
2022/04/21 12:40:49;;;;;;;1.65;0.78;;;;;;;;;;1852369;75;26797;-42
2022/04/21 12:43:17;;;;;;;1.30;0.70;;;;;;;;;;1861237;76;26834;-45
2022/04/21 12:45:44;;;;;;;0.70;0.70;;;;;;;;;;1865719;75;26260;-45
2022/04/21 12:48:16;;;;;;;1.02;0.72;;;;;;;;;;1861581;76;26256;-46
2022/04/21 12:50:44;;;;;;;2.95;0.80;;;;;;;;;;1860826;76;26338;-50
2022/04/21 12:53:11;;;;;;;1.40;0.80;;;;;;;;;;1857865;75;26272;-45
2022/04/21 12:55:38;;;;;;;0.80;0.80;;;;;;;;;;1859206;75;26338;-44
2022/04/21 12:58:06;;;;;;;1.00;0.70;;;;;;;;;;1862480;75;26740;-42
2022/04/21 13:00:35;;;;;;;1.17;0.70;;;;;;;;;;1857125;77;26252;-44
2022/04/21 13:03:02;;;;;;;0.57;0.57;;;;;;;;;;1862983;77;26277;-41
2022/04/21 13:05:30;;;;;;;0.70;0.70;;;;;;;;;;1860510;76;26300;-45
2022/04/21 13:07:57;;;;;;;0.80;0.80;;;;;;;;;;1863985;76;26301;-41
2022/04/21 13:10:26;;;;;;;0.60;0.60;;;;;;;;;;1857780;76;26706;-43
2022/04/21 13:12:53;;;;;;;0.70;0.70;;;;;;;;;;1863189;76;26640;-50
2022/04/21 13:15:21;;;;;;;0.72;0.72;;;;;;;;;;1847857;77;26308;-50
2022/04/21 13:17:48;;;;;;;0.60;0.60;;;;;;;;;;1852435;77;26269;-48
2022/04/21 13:21:52;;;;;;;1.77;0.80;;;;;;;;;;1856973;76;26253;-45
2022/04/21 13:22:44;;;;;;;0.57;0.57;;;;;;;;;;1854382;76;26292;-44
2022/04/21 13:25:12;;;;;;;0.60;0.60;;;;;;;;;;1857269;76;26288;-50
2022/04/21 13:27:39;;;;;;;0.70;0.70;;;;;;;;;;1855058;76;26384;-50
2022/04/21 13:30:07;;;;;;;1.67;0.78;;;;;;;;;;1858152;76;26928;-52
2022/04/21 13:35:20;;;;;;;0.80;0.80;;;;;;;;;;1852676;76;26388;-42
2022/04/21 13:37:47;;;;;;;0.62;0.60;;;;;;;;;;1862345;76;26265;-41
2022/04/21 13:40:14;;;;;;;0.70;0.70;;;;;;;;;;1867071;76;26261;-42
2022/04/21 13:42:41;;;;;;;0.60;0.60;;;;;;;;;;1861879;76;26201;-42
2022/04/21 13:45:09;;;;;;;1.02;0.70;;;;;;;;;;1864981;76;26308;-49
2022/04/21 13:47:36;;;;;;;0.55;0.55;;;;;;;;;;1866380;76;26245;-47
2022/04/21 13:50:04;;;;;;;0.70;0.70;;;;;;;;;;1861355;76;26262;-44
2022/04/21 13:52:32;;;;;;;0.60;0.60;;;;;;;;;;1868050;76;26720;-46
2022/04/21 13:54:59;;;;;;;0.78;0.78;;;;;;;;;;1849789;76;26332;-43
2022/04/21 13:57:27;;;;;;;0.60;0.60;;;;;;;;;;1858869;76;26292;-44
2022/04/21 13:59:54;;;;;;;0.62;0.60;;;;;;;;;;1846492;76;26259;-42
2022/04/21 14:02:21;;;;;;;0.65;0.65;;;;;;;;;;1852474;76;26337;-45
2022/04/21 14:04:49;;;;;;;0.70;0.70;;;;;;;;;;1851849;76;26332;-47
2022/04/21 14:07:16;;;;;;;0.78;0.60;;;;;;;;;;1845367;76;26273;-46
2022/04/21 14:09:43;;;;;;;0.53;0.53;;;;;;;;;;1849915;76;26872;-42
2022/04/21 14:12:11;;;;;;;0.57;0.57;;;;;;;;;;1847317;76;27520;-51
2022/04/21 14:14:38;;;;;;;0.70;0.70;;;;;;;;;;1849353;76;26359;-49
2022/04/21 14:17:06;;;;;;;0.60;0.60;;;;;;;;;;1849077;76;26700;-43
2022/04/21 14:19:33;;;;;;;0.60;0.60;;;;;;;;;;1861059;76;26269;-41
2022/04/21 14:22:01;;;;;;;0.60;0.60;;;;;;;;;;1847826;76;26327;-47
2022/04/21 14:24:28;;;;;;;0.60;0.60;;;;;;;;;;1860842;76;26260;-43
2022/04/21 14:26:57;;;;;;;0.50;0.50;;;;;;;;;;1856622;76;26367;-47
2022/04/21 14:29:24;;;;;;;0.70;0.70;;;;;;;;;;1859638;76;26778;-46
2022/04/21 14:31:52;;;;;;;0.57;0.57;;;;;;;;;;1856812;76;26269;-41
2022/04/21 14:34:19;;;;;;;0.70;0.70;;;;;;;;;;1853238;76;26966;-43
2022/04/21 14:36:46;;;;;;;0.60;0.60;;;;;;;;;;1862525;76;26801;-47
2022/04/21 14:44:45;;;;;;;0.50;0.50;;;;;;;;;;1850824;76;26278;-47
2022/04/21 14:47:13;;;;;;;0.60;0.60;;;;;;;;;;1876224;76;26798;-45
2022/04/21 14:49:40;;;;;;;1.35;0.60;;;;;;;;;;1852022;76;26267;-48
2022/04/21 14:52:08;;;;;;;0.60;0.60;;;;;;;;;;1855238;77;26206;-51
2022/04/21 14:54:35;;;;;;;0.50;0.50;;;;;;;;;;1840111;76;26358;-47
2022/04/21 14:57:03;;;;;;;0.60;0.60;;;;;;;;;;1847312;76;26288;-50
2022/04/21 14:59:31;;;;;;;0.45;0.45;;;;;;;;;;1857993;76;26260;-50
2022/04/21 15:01:59;;;;;;;0.50;0.50;;;;;;;;;;1849315;76;26626;-51
2022/04/21 15:04:26;;;;;;;0.50;0.50;;;;;;;;;;1854587;76;26251;-49
2022/04/21 15:06:53;;;;;;;0.60;0.60;;;;;;;;;;1843776;76;26246;-45
2022/04/21 15:09:20;;;;;;;0.60;0.60;;;;;;;;;;1858879;76;26367;-45
2022/04/21 15:11:49;;;;;;;0.60;0.60;;;;;;;;;;1843337;76;26308;-47
2022/04/21 15:14:17;;;;;;;0.60;0.60;;;;;;;;;;1846308;76;26555;-46
2022/04/21 15:16:44;;;;;;;0.60;0.60;;;;;;;;;;1848474;76;26248;-46
2022/04/21 15:19:12;;;;;;;0.60;0.60;;;;;;;;;;1847582;76;26311;-45
2022/04/21 15:21:39;;;;;;;0.88;0.60;;;;;;;;;;1848639;76;26672;-52
2022/04/21 15:24:07;;;;;;;1.12;0.70;;;;;;;;;;1842015;76;26383;-48
2022/04/21 15:26:35;;;;;;;0.50;0.50;;;;;;;;;;1844233;76;26343;-47
2022/04/21 15:29:03;;;;;;;0.60;0.60;;;;;;;;;;1848428;76;26262;-48
2022/04/21 15:31:31;;;;;;;0.60;0.60;;;;;;;;;;1846855;76;26319;-47
2022/04/21 15:33:58;;;;;;;0.65;0.65;;;;;;;;;;1845147;76;26708;-46
2022/04/21 15:36:26;;;;;;;0.60;0.60;;;;;;;;;;1853237;76;26194;-48
2022/04/21 15:38:53;;;;;;;0.70;0.70;;;;;;;;;;1840120;76;26267;-52
2022/04/21 15:41:23;;;;;;;0.78;0.78;;;;;;;;;;1841681;76;26230;-47
2022/04/21 15:43:51;;;;;;;0.60;0.60;;;;;;;;;;1854386;76;26327;-51
2022/04/21 15:46:18;;;;;;;0.60;0.60;;;;;;;;;;1838977;76;27484;-54
2022/04/21 15:48:46;;;;;;;0.70;0.70;;;;;;;;;;1837970;76;26269;-46
2022/04/21 15:51:13;;;;;;;0.70;0.70;;;;;;;;;;1847801;76;26319;-48
2022/04/21 15:59:11;;;;;;;0.70;0.70;;;;;;;;;;1842993;76;26795;-45